Riviera Beach, Florida
Current Conditions -  °F | °C
As of 3:53 AM on Saturday 25 Oct 2014 (Local Time) from KPBI Reporting Station
Few Clouds Few Clouds  
Wind Chill: 67°   Ceiling: Unl
Heat Index: 67°   Visibility: 10mi
Dew Point: 64°   Wind: 8mph
Humidity: 90%   Direction: 320°NW
Pressure: 29.86"   Gusts: NA
Location:  26.78°N, 80.06°W
Report Text: KPBI 250753Z 32007KT 10SM FEW038 19/18 A2986 RMK AO2 SLP109 T01940178
Loading
Personal Weather Stations






























Interactive Weather Map
Tropical Storm Tracking
New forecast layout! Learn more

10-Day Weather Forecast

Advertisements
Track Severe Weather on mobile